Aviation Digital Data Service (ADDS)

Output produced by TAFs form (1214 UTC 01 October 2014)
found at http://aviationweather.gov/adds/tafs/
 
KGJT 011212Z 0112/0212 11007KT P6SM VCSH SCT080 BKN100 
     TEMPO 0112/0114 -SHRA BKN080 
     FM011400 12007KT P6SM -SHRA VCTS SCT070CB OVC110 
     FM011700 32009KT P6SM -SHRA VCTS SCT050 OVC070CB 
     FM012100 30013G21KT P6SM VCSH SCT060 BKN100 
     FM020400 34007KT P6SM SCT100 
     FM021000 05006KT P6SM SKC